Aérodrome :
LOGIN :

S'inscrire | Disclaimer

   EN    FR    IT 

 










Légende :    VFR   VFR Marginal   IFR   IFR Intensif   IFR Très Intensif
Visi : 
Plafond : 
>= 8 km
>= 3000ft
5 à 8 km
1000 à 3000 ft
1500m à 5 km
500 à 1000 ft
800 à 1500m
200 à 500 ft
< 800m
< 200 ft
Symboles :   Orages  Brouillard  Fortes neiges  Fortes précipitations  Vent > 20 kt
SIGMETs :   Divers  Orages  Givrage  Turbulence  Onde Orograph.  Cendres Volcan.






- Altitude de l'aérodrome : 147 ft
- Code IATA : DUS


EDDL - Düsseldorf Int.

DERNIER METAR :
  • 021020Z AUTO 20008KT 090V240 CAVOK 23/07 Q1022 NOSIG

METARs EXPIRÉS :
  • 020950Z AUTO 21007KT 110V240 CAVOK 23/09 Q1022 NOSIG
  • 020920Z AUTO 20006KT 150V220 CAVOK 22/08 Q1022 NOSIG
  • 020850Z AUTO 19006KT 140V240 CAVOK 21/09 Q1022 NOSIG
  • 020820Z AUTO 19007KT 100V220 CAVOK 21/10 Q1023 NOSIG
  • 012150Z AUTO VRB02KT CAVOK 14/11 Q1022 NOSIG
  • 020750Z AUTO 16007KT 130V190 CAVOK 20/11 Q1023 NOSIG

TAF TAF EDDL
Valide du 02 à 06h jusqu'au 03 à 12h UTC


020500Z 0206/0312 16009KT CAVOK
BECMG 0212/0215 22007KT
BECMG 0217/0220 VRB03KT
BECMG 0304/0307 24005KT
BECMG 0309/0312 26010KT



MET'MAP, la Météo Aéronautique d'un coup d'oeil ! - Copyright ORBIFLY Décembre 2007 - Disclaimer

ORBIFLY MET'MAP TEAM :

Programmation & Développement : Alexandra Zaïnal
Sur une idée originale de : Baudouin d'Aumeries
Soutien technique & logistique : Manuel Goepfert
Assistance : Marc-Olivier Méhu




SOURCES & CREDITS :

   NOAA